createdAt,value
2023-04-24T00:01:09.938Z,55.24
2023-04-24T00:03:40.140Z,56.70
2023-04-24T00:06:09.066Z,56.79
2023-04-24T00:08:37.717Z,57.04
2023-04-24T00:11:05.828Z,56.78
2023-04-24T00:13:33.872Z,57.91
2023-04-24T00:16:01.748Z,58.13
2023-04-24T00:18:30.000Z,57.33
2023-04-24T00:20:59.705Z,57.14
2023-04-24T00:23:27.594Z,57.32
2023-04-24T00:25:55.471Z,58.61
2023-04-24T00:28:23.452Z,59.59
2023-04-24T00:30:51.403Z,57.32
2023-04-24T00:33:19.377Z,53.92
2023-04-24T00:35:47.286Z,54.10
2023-04-24T00:38:16.617Z,53.18
2023-04-24T00:40:44.493Z,54.63
2023-04-24T00:43:12.894Z,56.69
2023-04-24T00:45:40.811Z,57.79
2023-04-24T00:48:09.465Z,56.49
2023-04-24T00:50:38.724Z,57.02
2023-04-24T00:53:06.695Z,57.79
2023-04-24T00:55:36.261Z,58.75
2023-04-24T00:58:04.454Z,58.70
2023-04-24T01:00:33.000Z,58.32
2023-04-24T01:03:03.739Z,58.64
2023-04-24T01:05:31.938Z,58.44
2023-04-24T01:08:01.314Z,57.82
2023-04-24T01:10:31.578Z,57.21
2023-04-24T01:13:01.075Z,55.50
2023-04-24T01:15:29.129Z,56.77
2023-04-24T01:17:57.127Z,56.70
2023-04-24T01:20:27.137Z,56.50
2023-04-24T01:22:57.515Z,55.93
2023-04-24T01:25:26.758Z,55.88
2023-04-24T01:27:54.639Z,55.13
2023-04-24T01:30:22.567Z,56.06
2023-04-24T01:32:52.618Z,56.40
2023-04-24T01:35:21.060Z,55.13
2023-04-24T01:37:48.932Z,56.48
2023-04-24T01:40:18.966Z,55.91
2023-04-24T01:42:47.453Z,55.29
2023-04-24T01:45:15.400Z,54.56
2023-04-24T01:47:43.941Z,54.76
2023-04-24T01:50:12.083Z,56.23
2023-04-24T01:52:40.669Z,55.58
2023-04-24T01:55:09.660Z,51.68
2023-04-24T01:57:39.198Z,48.58
2023-04-24T02:00:08.690Z,48.54
2023-04-24T02:02:45.673Z,48.83
2023-04-24T02:05:15.466Z,48.50
2023-04-24T02:07:43.444Z,48.63
2023-04-24T02:10:12.189Z,49.03
2023-04-24T02:12:45.322Z,48.13
2023-04-24T02:15:13.728Z,47.56
2023-04-24T02:17:41.740Z,47.95
2023-04-24T02:20:10.218Z,48.74
2023-04-24T02:22:40.053Z,49.02
2023-04-24T02:25:09.063Z,48.61
2023-04-24T02:27:37.070Z,49.17
2023-04-24T02:30:10.222Z,49.70
2023-04-24T02:32:38.205Z,48.91
2023-04-24T02:35:07.061Z,50.08
2023-04-24T02:37:34.992Z,49.70
2023-04-24T02:40:02.946Z,50.27
2023-04-24T02:42:31.053Z,51.73
2023-04-24T02:44:59.436Z,51.66
2023-04-24T02:47:28.745Z,51.56
2023-04-24T02:49:57.064Z,50.21
2023-04-24T02:52:24.982Z,49.83
2023-04-24T02:54:55.403Z,49.79
2023-04-24T02:57:23.429Z,51.13
2023-04-24T02:59:51.324Z,51.73
2023-04-24T03:02:19.380Z,50.99
2023-04-24T03:04:49.433Z,52.79
2023-04-24T03:07:17.370Z,53.45
2023-04-24T03:09:45.479Z,52.57
2023-04-24T03:12:13.501Z,54.06
2023-04-24T03:14:41.364Z,54.68
2023-04-24T03:17:09.280Z,55.46
2023-04-24T03:19:37.444Z,55.81
2023-04-24T03:22:12.310Z,55.10
2023-04-24T03:24:41.464Z,55.23
2023-04-24T03:27:09.546Z,55.64
2023-04-24T03:29:57.580Z,55.13
2023-04-24T03:32:33.298Z,55.40
2023-04-24T03:35:01.910Z,55.99
2023-04-24T03:37:31.751Z,56.25
2023-04-24T03:40:13.728Z,55.54
2023-04-24T03:42:42.509Z,55.57
2023-04-24T03:45:11.746Z,55.84
2023-04-24T03:47:42.518Z,55.33
2023-04-24T03:50:13.057Z,55.70
2023-04-24T03:52:43.636Z,55.33
2023-04-24T03:55:14.988Z,54.85
2023-04-24T03:57:47.180Z,55.37
2023-04-24T04:00:22.319Z,55.79
2023-04-24T04:02:58.634Z,54.61
2023-04-24T04:05:26.710Z,53.88
2023-04-24T04:07:55.976Z,54.39
2023-04-24T04:10:24.558Z,54.60
2023-04-24T04:12:52.462Z,55.51
2023-04-24T04:15:20.412Z,54.96
2023-04-24T04:17:49.643Z,54.33
2023-04-24T04:20:18.157Z,55.72
2023-04-24T04:22:46.116Z,55.44
2023-04-24T04:25:20.931Z,54.54
2023-04-24T04:27:49.852Z,55.57
2023-04-24T04:30:17.754Z,54.89
2023-04-24T04:32:52.220Z,55.89
2023-04-24T04:35:28.829Z,55.35
2023-04-24T04:37:59.920Z,54.97
2023-04-24T04:40:52.701Z,54.27
2023-04-24T04:43:25.495Z,53.58
2023-04-24T04:45:55.959Z,54.57
2023-04-24T04:48:33.570Z,55.29
2023-04-24T04:51:03.425Z,53.35
2023-04-24T04:53:31.456Z,53.64
2023-04-24T04:56:00.882Z,54.38
2023-04-24T04:58:35.529Z,54.41
2023-04-24T05:01:04.875Z,54.88
2023-04-24T05:03:38.258Z,55.18
2023-04-24T05:06:10.244Z,54.14
2023-04-24T05:08:40.809Z,55.30
2023-04-24T05:11:14.586Z,54.53
2023-04-24T05:13:43.263Z,54.64
2023-04-24T05:16:16.880Z,54.49
2023-04-24T05:18:45.131Z,53.98
2023-04-24T05:21:19.025Z,55.06
2023-04-24T05:23:51.189Z,54.86
2023-04-24T05:26:29.352Z,55.68
2023-04-24T05:28:59.679Z,52.96
2023-04-24T05:31:27.634Z,53.06
2023-04-24T05:33:56.222Z,54.01
2023-04-24T05:36:24.241Z,52.69
2023-04-24T05:38:52.165Z,53.05
2023-04-24T05:41:21.312Z,52.76
2023-04-24T05:43:50.776Z,53.21
2023-04-24T05:46:18.944Z,52.98
2023-04-24T05:48:46.847Z,51.76
2023-04-24T05:51:14.737Z,52.57
2023-04-24T05:53:42.779Z,52.81
2023-04-24T05:56:11.082Z,53.68
2023-04-24T05:58:39.150Z,57.28
2023-04-24T06:01:08.540Z,59.87
2023-04-24T06:03:36.691Z,60.23
2023-04-24T06:06:05.526Z,60.27
2023-04-24T06:08:34.714Z,62.17
2023-04-24T06:11:04.687Z,63.37
2023-04-24T06:13:33.859Z,64.47
2023-04-24T06:16:21.666Z,64.90
2023-04-24T06:18:56.210Z,64.89
2023-04-24T06:21:24.211Z,65.05
2023-04-24T06:23:52.193Z,64.22
2023-04-24T06:26:20.149Z,64.58
2023-04-24T06:28:48.069Z,60.25
2023-04-24T06:31:15.964Z,62.24
2023-04-24T06:33:45.481Z,64.72
2023-04-24T06:36:14.252Z,65.11
2023-04-24T06:38:42.192Z,61.96
2023-04-24T06:41:10.162Z,65.38
2023-04-24T06:43:38.132Z,62.13
2023-04-24T06:46:06.354Z,62.38
2023-04-24T06:48:34.287Z,62.11
2023-04-24T06:51:03.729Z,58.21
2023-04-24T06:53:31.632Z,57.47
2023-04-24T06:55:59.950Z,56.93
2023-04-24T06:58:28.081Z,57.16
2023-04-24T07:00:56.015Z,57.33
2023-04-24T07:03:24.249Z,56.37
2023-04-24T07:05:52.413Z,57.01
2023-04-24T07:08:23.075Z,56.92
2023-04-24T07:10:52.347Z,57.59
2023-04-24T07:13:20.244Z,57.46
2023-04-24T07:15:50.067Z,58.11
2023-04-24T07:18:18.226Z,58.52
2023-04-24T07:20:46.500Z,58.56
2023-04-24T07:23:14.794Z,57.82
2023-04-24T07:25:44.176Z,59.98
2023-04-24T07:28:12.133Z,59.26
2023-04-24T07:30:40.456Z,59.37
2023-04-24T07:33:08.546Z,58.06
2023-04-24T07:35:37.482Z,57.55
2023-04-24T07:38:05.871Z,57.01
2023-04-24T07:40:33.850Z,56.68
2023-04-24T07:43:03.143Z,57.01
2023-04-24T07:45:32.173Z,58.50
2023-04-24T07:48:00.089Z,56.97
2023-04-24T07:50:28.017Z,59.62
2023-04-24T07:52:55.914Z,58.22
2023-04-24T07:55:25.751Z,59.30
2023-04-24T07:57:55.446Z,58.79
2023-04-24T08:00:24.744Z,57.19
2023-04-24T08:02:52.741Z,58.28
2023-04-24T08:05:21.019Z,59.99
2023-04-24T08:07:49.803Z,59.17
2023-04-24T08:10:18.011Z,59.45
2023-04-24T08:12:45.891Z,62.66
2023-04-24T08:15:13.929Z,61.28
2023-04-24T08:17:43.307Z,61.72
2023-04-24T08:20:14.673Z,62.08
2023-04-24T08:22:43.126Z,60.92
2023-04-24T08:25:12.312Z,61.45
2023-04-24T08:27:40.769Z,60.49
2023-04-24T08:30:09.652Z,63.38
2023-04-24T08:32:38.601Z,61.48
2023-04-24T08:35:10.164Z,63.04
2023-04-24T08:37:38.793Z,60.81
2023-04-24T08:40:12.525Z,60.77
2023-04-24T08:42:41.363Z,60.13
2023-04-24T08:45:10.580Z,59.05
2023-04-24T08:47:40.663Z,58.39
2023-04-24T08:50:11.271Z,58.25
2023-04-24T08:52:39.302Z,56.32
2023-04-24T08:55:08.059Z,56.91
2023-04-24T08:57:36.960Z,59.28
2023-04-24T09:00:05.717Z,60.50
2023-04-24T09:02:36.121Z,60.29
2023-04-24T09:05:06.313Z,59.83
2023-04-24T09:07:37.836Z,60.93
2023-04-24T09:10:06.624Z,61.16
2023-04-24T09:12:34.919Z,61.75
2023-04-24T09:15:04.443Z,63.56
2023-04-24T09:17:32.879Z,63.84
2023-04-24T09:20:00.920Z,62.49
2023-04-24T09:22:31.919Z,65.49
2023-04-24T09:25:07.925Z,74.39
2023-04-24T09:27:36.150Z,69.18
2023-04-24T09:30:04.966Z,68.43
2023-04-24T09:32:33.040Z,68.87
2023-04-24T09:35:09.173Z,70.93
2023-04-24T09:37:39.148Z,71.03
2023-04-24T09:40:13.654Z,69.73
2023-04-24T09:42:41.768Z,69.45
2023-04-24T09:45:17.635Z,69.59
2023-04-24T09:47:45.730Z,71.70
2023-04-24T09:50:15.739Z,71.41
2023-04-24T09:52:46.089Z,71.55
2023-04-24T09:55:19.690Z,70.37
2023-04-24T09:57:52.271Z,69.33
2023-04-24T10:00:23.590Z,69.97
2023-04-24T10:03:01.816Z,73.86
2023-04-24T10:05:31.386Z,70.69
2023-04-24T10:08:02.090Z,70.90
2023-04-24T10:10:31.767Z,70.08
2023-04-24T10:12:59.745Z,68.54
2023-04-24T10:15:28.934Z,69.17
2023-04-24T10:17:57.793Z,70.99
2023-04-24T10:20:27.683Z,72.07
2023-04-24T10:22:57.105Z,61.61
2023-04-24T10:25:26.194Z,62.31
2023-04-24T10:27:58.468Z,47.76
2023-04-24T10:30:26.986Z,46.57
2023-04-24T10:32:55.172Z,46.55
2023-04-24T10:35:25.403Z,46.22
2023-04-24T10:37:58.531Z,45.93
2023-04-24T10:40:29.356Z,44.74
2023-04-24T10:42:59.183Z,43.86
2023-04-24T10:45:27.862Z,71.32
2023-04-24T10:48:00.370Z,78.03
2023-04-24T10:50:30.276Z,79.77
2023-04-24T10:53:08.723Z,80.48
2023-04-24T10:55:48.012Z,81.37
2023-04-24T10:58:18.864Z,81.45
2023-04-24T11:00:58.551Z,81.75
2023-04-24T11:03:28.875Z,81.74
2023-04-24T11:06:02.171Z,81.61
2023-04-24T11:08:32.453Z,82.26
2023-04-24T11:11:03.519Z,82.53
2023-04-24T11:14:05.235Z,82.34
2023-04-24T11:16:35.101Z,76.84
2023-04-24T11:19:07.219Z,75.27
2023-04-24T11:21:43.048Z,74.15
2023-04-24T11:24:27.894Z,72.13
2023-04-24T11:26:57.653Z,73.02
2023-04-24T11:29:41.106Z,76.23
2023-04-24T11:32:26.600Z,75.89
2023-04-24T11:34:56.271Z,77.20
2023-04-24T11:37:25.693Z,74.26
2023-04-24T11:39:58.186Z,72.12
2023-04-24T11:42:26.641Z,72.44
2023-04-24T11:44:57.886Z,71.16
2023-04-24T11:47:34.254Z,71.62
2023-04-24T11:50:03.387Z,72.41
2023-04-24T11:52:32.146Z,72.31
2023-04-24T11:55:00.370Z,72.11
2023-04-24T11:57:30.015Z,71.18
2023-04-24T11:59:59.475Z,72.31
2023-04-24T12:02:29.866Z,72.02
2023-04-24T12:04:58.280Z,71.90
2023-04-24T12:07:26.569Z,71.53
2023-04-24T12:10:00.732Z,69.16
2023-04-24T12:12:29.934Z,71.56
2023-04-24T12:15:00.974Z,71.65
2023-04-24T12:17:31.291Z,72.16
2023-04-24T12:20:02.184Z,75.07
2023-04-24T12:22:30.519Z,75.78
2023-04-24T12:25:00.196Z,73.11
2023-04-24T12:27:28.442Z,71.12
2023-04-24T12:30:00.185Z,69.75
2023-04-24T12:32:28.613Z,68.59
2023-04-24T12:34:57.941Z,69.33
2023-04-24T12:37:27.093Z,67.98
2023-04-24T18:16:00.386Z,70.35
2023-04-24T18:18:28.539Z,64.39
2023-04-24T18:20:56.480Z,59.96
2023-04-24T18:23:24.422Z,57.66
2023-04-24T18:25:52.359Z,56.78
2023-04-24T18:28:20.335Z,56.07
2023-04-24T18:30:48.860Z,55.93
2023-04-24T18:33:19.004Z,55.52
2023-04-24T18:35:47.058Z,55.45
2023-04-24T18:38:14.992Z,55.26
2023-04-24T18:40:43.548Z,55.38
2023-04-24T18:43:11.656Z,55.33
2023-04-24T18:45:39.554Z,55.91
2023-04-24T18:48:07.676Z,56.50
2023-04-24T18:50:38.931Z,56.66
2023-04-24T18:53:07.204Z,56.75
2023-04-24T18:55:35.914Z,56.73
2023-04-24T18:58:03.895Z,56.68
2023-04-24T19:00:31.922Z,57.08
2023-04-24T19:03:00.337Z,57.40
2023-04-24T19:05:28.526Z,57.30
2023-04-24T19:07:57.786Z,57.71
2023-04-24T19:10:26.361Z,59.05
2023-04-24T19:12:56.603Z,59.66
2023-04-24T19:15:25.087Z,59.23
2023-04-24T19:17:53.314Z,58.46
2023-04-24T19:20:21.610Z,58.46
2023-04-24T19:22:49.779Z,58.74
2023-04-24T19:25:19.355Z,58.38
2023-04-24T19:27:47.382Z,58.98
2023-04-24T19:30:15.415Z,59.30
2023-04-24T19:32:43.457Z,58.71
2023-04-24T19:35:11.452Z,59.97
2023-04-24T19:37:40.021Z,60.16
2023-04-24T19:40:09.385Z,61.08
2023-04-24T19:42:44.346Z,60.94
2023-04-24T19:45:13.035Z,60.76
2023-04-24T19:47:41.207Z,60.69
2023-04-24T19:50:09.635Z,60.68
2023-04-24T19:52:37.610Z,61.20
2023-04-24T19:55:06.377Z,60.86
2023-04-24T19:57:34.320Z,61.58
2023-04-24T20:00:04.686Z,63.19
2023-04-24T20:02:33.320Z,61.49
2023-04-24T20:05:01.904Z,61.94
2023-04-24T20:07:30.048Z,61.88
2023-04-24T20:09:58.003Z,62.80
2023-04-24T20:12:25.989Z,64.11
2023-04-24T20:14:53.839Z,63.63
2023-04-24T20:17:23.156Z,63.62
2023-04-24T20:19:51.098Z,63.97
2023-04-24T20:22:19.080Z,62.96
2023-04-24T20:24:47.284Z,62.29
2023-04-24T20:27:15.310Z,63.19
2023-04-24T20:29:43.411Z,63.34
2023-04-24T20:32:11.379Z,62.97
2023-04-24T20:34:40.737Z,63.70
2023-04-24T20:37:08.639Z,63.22
2023-04-24T20:39:36.997Z,63.54
2023-04-24T20:42:05.208Z,64.06
2023-04-24T20:44:33.154Z,65.15
2023-04-24T20:47:01.680Z,65.16
2023-04-24T20:49:29.613Z,65.39
2023-04-24T20:51:59.639Z,64.45
2023-04-24T20:54:27.568Z,64.98
2023-04-24T20:56:55.555Z,63.63
2023-04-24T20:59:23.563Z,64.58
2023-04-24T21:01:51.559Z,64.67
2023-04-24T21:04:19.543Z,65.17
2023-04-24T21:06:47.778Z,64.77
2023-04-24T21:09:17.447Z,64.41
2023-04-24T21:11:45.420Z,63.44
2023-04-24T21:14:13.319Z,63.26
2023-04-24T21:16:41.279Z,63.21
2023-04-24T21:19:09.285Z,62.49
2023-04-24T21:21:37.259Z,62.89
2023-04-24T21:24:05.487Z,63.40
2023-04-24T21:26:35.418Z,63.15
2023-04-24T21:29:03.393Z,62.79
2023-04-24T21:31:31.345Z,62.89
2023-04-24T21:33:59.300Z,63.76
2023-04-24T21:36:27.301Z,63.84
2023-04-24T21:38:55.402Z,63.62
2023-04-24T21:41:24.725Z,63.59
2023-04-24T21:43:54.365Z,62.51
2023-04-24T21:46:22.553Z,62.27
2023-04-24T21:48:50.499Z,62.59
2023-04-24T21:51:20.348Z,63.01
2023-04-24T21:53:48.627Z,61.87
2023-04-24T21:56:17.022Z,61.14
2023-04-24T21:58:44.974Z,60.90
2023-04-24T22:01:15.614Z,61.25
2023-04-24T22:03:47.943Z,61.62
2023-04-24T22:06:16.290Z,62.78
2023-04-24T22:08:47.505Z,64.28
2023-04-24T22:11:25.881Z,64.04
2023-04-24T22:13:55.254Z,64.91
2023-04-24T22:16:25.326Z,65.11
2023-04-24T22:18:55.274Z,65.36
2023-04-24T22:21:23.954Z,65.93
2023-04-24T22:23:52.494Z,66.23
2023-04-24T22:26:20.919Z,66.00
2023-04-24T22:28:48.938Z,65.72
2023-04-24T22:31:17.064Z,65.46
2023-04-24T22:33:47.808Z,64.60
2023-04-24T22:36:16.316Z,66.80
2023-04-24T22:38:44.287Z,66.65
2023-04-24T22:41:12.279Z,65.63
2023-04-24T22:43:40.779Z,65.81
2023-04-24T22:46:08.661Z,66.19
2023-04-24T22:48:36.765Z,66.68
2023-04-24T22:51:06.679Z,66.28
2023-04-24T22:53:36.225Z,66.92
2023-04-24T22:56:04.562Z,65.05
2023-04-24T22:58:33.140Z,64.83
2023-04-24T23:01:01.200Z,66.42
2023-04-24T23:03:29.302Z,67.18
2023-04-24T23:05:57.352Z,68.03
2023-04-24T23:08:26.689Z,68.51
2023-04-24T23:10:54.722Z,68.13
2023-04-24T23:13:22.729Z,68.88
2023-04-24T23:15:51.986Z,68.34
2023-04-24T23:18:21.995Z,68.17
2023-04-24T23:20:50.046Z,68.28
2023-04-24T23:23:18.129Z,68.88
2023-04-24T23:25:47.370Z,68.79
2023-04-24T23:28:15.228Z,69.50
2023-04-24T23:30:43.063Z,68.83
2023-04-24T23:33:11.118Z,68.01
2023-04-24T23:35:39.114Z,62.66
2023-04-24T23:38:07.230Z,67.19
2023-04-24T23:40:35.158Z,68.28
2023-04-24T23:43:07.985Z,68.25
2023-04-24T23:45:37.023Z,68.35
2023-04-24T23:48:05.877Z,69.65
2023-04-24T23:50:34.104Z,69.33
2023-04-24T23:53:02.124Z,68.80
2023-04-24T23:55:30.190Z,68.36
2023-04-24T23:57:58.070Z,69.46
